Hugo, Minnesota
Current Conditions -  °F | °C
As of 12:45 PM on Tuesday 27 Jan 2015 (Local Time) from KANE Reporting Station
Overcast Overcast  
Wind Chill: 28°   Ceiling: 1800
Heat Index: 34°   Visibility: 10mi
Dew Point: 27°   Wind: 7mph
Humidity: 75%   Direction: 140°SE
Pressure: 30.17"   Gusts: NA
Location:  45.16°N, 92.99°W
Report Text: KANE 271845Z 14006KT 10SM OVC018 01/M03 A3017
Loading
Personal Weather Stations






























Interactive Weather Map New forecast layout! Learn more

10-Day Weather Forecast

Advertisements
Track Severe Weather on mobile